sensor_id;sensor_type;location;lat;lon;timestamp;temperature;humidity
80192;SHT31;69513;51.990;5.704;2023-07-13T00:01:39;19.8;61.3
80192;SHT31;69513;51.990;5.704;2023-07-13T00:04:13;19.8;61.2
80192;SHT31;69513;51.990;5.704;2023-07-13T00:06:43;19.8;59.9
80192;SHT31;69513;51.990;5.704;2023-07-13T00:09:16;19.8;60.2
80192;SHT31;69513;51.990;5.704;2023-07-13T00:11:52;19.8;60.3
80192;SHT31;69513;51.990;5.704;2023-07-13T00:14:24;19.8;60.4
80192;SHT31;69513;51.990;5.704;2023-07-13T00:16:55;19.7;59.6
80192;SHT31;69513;51.990;5.704;2023-07-13T00:19:28;19.7;59.6
80192;SHT31;69513;51.990;5.704;2023-07-13T00:21:58;19.7;59.9
80192;SHT31;69513;51.990;5.704;2023-07-13T00:24:28;19.7;59.7
80192;SHT31;69513;51.990;5.704;2023-07-13T00:26:57;19.7;59.5
80192;SHT31;69513;51.990;5.704;2023-07-13T00:29:30;19.7;59.4
80192;SHT31;69513;51.990;5.704;2023-07-13T00:32:03;19.6;59.5
80192;SHT31;69513;51.990;5.704;2023-07-13T00:34:35;19.6;59.4
80192;SHT31;69513;51.990;5.704;2023-07-13T00:37:07;19.6;59.8
80192;SHT31;69513;51.990;5.704;2023-07-13T00:39:40;19.6;60.0
80192;SHT31;69513;51.990;5.704;2023-07-13T00:42:10;19.5;60.7
80192;SHT31;69513;51.990;5.704;2023-07-13T00:44:41;19.5;60.9
80192;SHT31;69513;51.990;5.704;2023-07-13T00:47:10;19.5;60.6
80192;SHT31;69513;51.990;5.704;2023-07-13T00:49:41;19.5;59.9
80192;SHT31;69513;51.990;5.704;2023-07-13T00:52:11;19.4;60.4
80192;SHT31;69513;51.990;5.704;2023-07-13T00:54:44;19.4;60.4
80192;SHT31;69513;51.990;5.704;2023-07-13T00:57:18;19.4;60.2
80192;SHT31;69513;51.990;5.704;2023-07-13T00:59:54;19.4;60.7
80192;SHT31;69513;51.990;5.704;2023-07-13T01:02:25;19.3;61.2
80192;SHT31;69513;51.990;5.704;2023-07-13T01:04:57;19.3;60.4
80192;SHT31;69513;51.990;5.704;2023-07-13T01:07:30;19.3;61.2
80192;SHT31;69513;51.990;5.704;2023-07-13T01:10:00;19.3;61.0
80192;SHT31;69513;51.990;5.704;2023-07-13T01:12:30;19.2;60.7
80192;SHT31;69513;51.990;5.704;2023-07-13T01:15:02;19.2;60.5
80192;SHT31;69513;51.990;5.704;2023-07-13T01:17:34;19.2;61.0
80192;SHT31;69513;51.990;5.704;2023-07-13T01:20:11;19.1;60.9
80192;SHT31;69513;51.990;5.704;2023-07-13T01:22:41;19.1;61.0
80192;SHT31;69513;51.990;5.704;2023-07-13T01:25:12;19.1;61.1
80192;SHT31;69513;51.990;5.704;2023-07-13T01:27:41;19.1;61.5
80192;SHT31;69513;51.990;5.704;2023-07-13T01:30:14;19.1;61.6
80192;SHT31;69513;51.990;5.704;2023-07-13T01:32:44;19.1;61.3
80192;SHT31;69513;51.990;5.704;2023-07-13T01:35:15;19.0;61.7
80192;SHT31;69513;51.990;5.704;2023-07-13T01:37:45;19.0;61.8
80192;SHT31;69513;51.990;5.704;2023-07-13T01:40:17;19.0;61.8
80192;SHT31;69513;51.990;5.704;2023-07-13T01:42:48;19.0;62.0
80192;SHT31;69513;51.990;5.704;2023-07-13T01:45:20;19.0;62.2
80192;SHT31;69513;51.990;5.704;2023-07-13T01:47:52;19.0;61.4
80192;SHT31;69513;51.990;5.704;2023-07-13T01:50:22;18.9;61.7
80192;SHT31;69513;51.990;5.704;2023-07-13T01:52:54;18.9;62.1
80192;SHT31;69513;51.990;5.704;2023-07-13T01:55:24;18.9;62.6
80192;SHT31;69513;51.990;5.704;2023-07-13T01:57:54;18.9;62.1
80192;SHT31;69513;51.990;5.704;2023-07-13T02:00:24;18.9;62.1
80192;SHT31;69513;51.990;5.704;2023-07-13T02:02:55;18.9;61.7
80192;SHT31;69513;51.990;5.704;2023-07-13T02:05:26;18.9;62.1
80192;SHT31;69513;51.990;5.704;2023-07-13T02:07:57;18.8;61.9
80192;SHT31;69513;51.990;5.704;2023-07-13T02:10:27;18.8;61.5
80192;SHT31;69513;51.990;5.704;2023-07-13T02:12:58;18.8;62.1
80192;SHT31;69513;51.990;5.704;2023-07-13T02:15:27;18.8;62.8
80192;SHT31;69513;51.990;5.704;2023-07-13T02:17:58;18.8;62.1
80192;SHT31;69513;51.990;5.704;2023-07-13T02:20:30;18.8;61.8
80192;SHT31;69513;51.990;5.704;2023-07-13T02:23:00;18.7;62.6
80192;SHT31;69513;51.990;5.704;2023-07-13T02:25:29;18.7;61.7
80192;SHT31;69513;51.990;5.704;2023-07-13T02:27:59;18.7;62.1
80192;SHT31;69513;51.990;5.704;2023-07-13T02:30:30;18.7;62.5
80192;SHT31;69513;51.990;5.704;2023-07-13T02:33:00;18.7;62.4
80192;SHT31;69513;51.990;5.704;2023-07-13T02:35:31;18.6;62.7
80192;SHT31;69513;51.990;5.704;2023-07-13T02:38:01;18.6;62.9
80192;SHT31;69513;51.990;5.704;2023-07-13T02:40:32;18.6;62.4
80192;SHT31;69513;51.990;5.704;2023-07-13T02:43:03;18.6;62.7
80192;SHT31;69513;51.990;5.704;2023-07-13T02:45:33;18.5;62.7
80192;SHT31;69513;51.990;5.704;2023-07-13T02:48:05;18.5;62.9
80192;SHT31;69513;51.990;5.704;2023-07-13T02:50:34;18.5;63.0
80192;SHT31;69513;51.990;5.704;2023-07-13T02:53:04;18.5;63.1
80192;SHT31;69513;51.990;5.704;2023-07-13T02:55:33;18.5;63.1
80192;SHT31;69513;51.990;5.704;2023-07-13T02:58:03;18.5;63.2
80192;SHT31;69513;51.990;5.704;2023-07-13T03:00:34;18.4;63.5
80192;SHT31;69513;51.990;5.704;2023-07-13T03:03:09;18.4;63.4
80192;SHT31;69513;51.990;5.704;2023-07-13T03:05:42;18.4;63.6
80192;SHT31;69513;51.990;5.704;2023-07-13T03:08:12;18.4;63.3
80192;SHT31;69513;51.990;5.704;2023-07-13T03:10:42;18.4;63.7
80192;SHT31;69513;51.990;5.704;2023-07-13T03:13:13;18.3;63.9
80192;SHT31;69513;51.990;5.704;2023-07-13T03:15:43;18.3;63.7
80192;SHT31;69513;51.990;5.704;2023-07-13T03:18:14;18.3;63.9
80192;SHT31;69513;51.990;5.704;2023-07-13T03:20:43;18.3;64.1
80192;SHT31;69513;51.990;5.704;2023-07-13T03:23:14;18.3;64.2
80192;SHT31;69513;51.990;5.704;2023-07-13T03:25:46;18.2;64.0
80192;SHT31;69513;51.990;5.704;2023-07-13T03:28:17;18.2;64.7
80192;SHT31;69513;51.990;5.704;2023-07-13T03:30:49;18.2;64.4
80192;SHT31;69513;51.990;5.704;2023-07-13T03:33:18;18.2;64.6
80192;SHT31;69513;51.990;5.704;2023-07-13T03:35:50;18.1;64.8
80192;SHT31;69513;51.990;5.704;2023-07-13T03:38:19;18.1;64.8
80192;SHT31;69513;51.990;5.704;2023-07-13T03:40:50;18.1;64.9
80192;SHT31;69513;51.990;5.704;2023-07-13T03:43:19;18.1;65.0
80192;SHT31;69513;51.990;5.704;2023-07-13T03:45:49;18.1;65.0
80192;SHT31;69513;51.990;5.704;2023-07-13T03:48:19;18.1;65.4
80192;SHT31;69513;51.990;5.704;2023-07-13T03:50:49;18.1;65.7
80192;SHT31;69513;51.990;5.704;2023-07-13T03:53:19;18.0;65.2
80192;SHT31;69513;51.990;5.704;2023-07-13T03:55:49;18.0;65.3
80192;SHT31;69513;51.990;5.704;2023-07-13T03:58:30;18.0;65.3
80192;SHT31;69513;51.990;5.704;2023-07-13T04:01:04;18.0;65.5
80192;SHT31;69513;51.990;5.704;2023-07-13T04:03:35;18.0;65.9
80192;SHT31;69513;51.990;5.704;2023-07-13T04:06:16;18.0;65.9
80192;SHT31;69513;51.990;5.704;2023-07-13T04:08:53;18.0;65.7
80192;SHT31;69513;51.990;5.704;2023-07-13T04:11:26;18.0;66.0
80192;SHT31;69513;51.990;5.704;2023-07-13T04:14:00;18.0;66.3
80192;SHT31;69513;51.990;5.704;2023-07-13T04:16:30;18.0;66.1
80192;SHT31;69513;51.990;5.704;2023-07-13T04:19:01;18.0;66.5
80192;SHT31;69513;51.990;5.704;2023-07-13T04:21:32;18.0;66.3
80192;SHT31;69513;51.990;5.704;2023-07-13T04:24:03;18.0;66.7
80192;SHT31;69513;51.990;5.704;2023-07-13T04:26:33;18.0;66.5
80192;SHT31;69513;51.990;5.704;2023-07-13T04:29:08;18.0;66.9
80192;SHT31;69513;51.990;5.704;2023-07-13T04:31:37;18.0;67.1
80192;SHT31;69513;51.990;5.704;2023-07-13T04:34:09;18.0;66.5
80192;SHT31;69513;51.990;5.704;2023-07-13T04:36:39;18.0;67.0
80192;SHT31;69513;51.990;5.704;2023-07-13T04:39:11;18.1;67.0
80192;SHT31;69513;51.990;5.704;2023-07-13T04:41:41;18.1;66.8
80192;SHT31;69513;51.990;5.704;2023-07-13T04:44:14;18.1;66.8
80192;SHT31;69513;51.990;5.704;2023-07-13T04:46:44;18.1;67.5
80192;SHT31;69513;51.990;5.704;2023-07-13T04:49:14;18.1;67.0
80192;SHT31;69513;51.990;5.704;2023-07-13T04:51:44;18.2;66.7
80192;SHT31;69513;51.990;5.704;2023-07-13T04:54:15;18.2;66.9
80192;SHT31;69513;51.990;5.704;2023-07-13T04:56:45;18.2;67.1
80192;SHT31;69513;51.990;5.704;2023-07-13T04:59:14;18.2;66.8
80192;SHT31;69513;51.990;5.704;2023-07-13T05:01:44;18.3;67.1
80192;SHT31;69513;51.990;5.704;2023-07-13T05:04:14;18.3;66.9
80192;SHT31;69513;51.990;5.704;2023-07-13T05:06:44;18.3;66.8
80192;SHT31;69513;51.990;5.704;2023-07-13T05:09:16;18.3;66.8
80192;SHT31;69513;51.990;5.704;2023-07-13T05:11:46;18.3;67.2
80192;SHT31;69513;51.990;5.704;2023-07-13T05:14:15;18.4;66.5
80192;SHT31;69513;51.990;5.704;2023-07-13T05:16:45;18.4;67.1
80192;SHT31;69513;51.990;5.704;2023-07-13T05:19:15;18.4;66.8
80192;SHT31;69513;51.990;5.704;2023-07-13T05:21:44;18.4;67.1
80192;SHT31;69513;51.990;5.704;2023-07-13T05:24:14;18.4;67.1
80192;SHT31;69513;51.990;5.704;2023-07-13T05:26:44;18.4;67.1
80192;SHT31;69513;51.990;5.704;2023-07-13T05:29:14;18.4;67.1
80192;SHT31;69513;51.990;5.704;2023-07-13T05:31:44;18.4;67.4
80192;SHT31;69513;51.990;5.704;2023-07-13T05:34:14;18.5;68.1
80192;SHT31;69513;51.990;5.704;2023-07-13T05:36:45;18.5;68.1
80192;SHT31;69513;51.990;5.704;2023-07-13T05:39:15;18.5;68.0
80192;SHT31;69513;51.990;5.704;2023-07-13T05:41:47;18.5;67.5
80192;SHT31;69513;51.990;5.704;2023-07-13T05:44:16;18.5;67.8
80192;SHT31;69513;51.990;5.704;2023-07-13T05:46:47;18.6;67.5
80192;SHT31;69513;51.990;5.704;2023-07-13T05:49:17;18.6;67.8
80192;SHT31;69513;51.990;5.704;2023-07-13T05:51:48;18.6;67.7
80192;SHT31;69513;51.990;5.704;2023-07-13T05:54:19;18.6;68.0
80192;SHT31;69513;51.990;5.704;2023-07-13T05:56:49;18.7;68.4
80192;SHT31;69513;51.990;5.704;2023-07-13T05:59:19;18.7;68.0
80192;SHT31;69513;51.990;5.704;2023-07-13T06:01:50;18.7;67.9
80192;SHT31;69513;51.990;5.704;2023-07-13T06:04:21;18.7;68.1
80192;SHT31;69513;51.990;5.704;2023-07-13T06:06:51;18.8;67.8
80192;SHT31;69513;51.990;5.704;2023-07-13T06:09:21;18.8;68.0
80192;SHT31;69513;51.990;5.704;2023-07-13T06:11:52;18.8;68.1
80192;SHT31;69513;51.990;5.704;2023-07-13T06:14:22;18.8;68.1
80192;SHT31;69513;51.990;5.704;2023-07-13T06:16:51;18.9;68.3
80192;SHT31;69513;51.990;5.704;2023-07-13T06:19:22;18.9;68.3
80192;SHT31;69513;51.990;5.704;2023-07-13T06:21:51;18.9;68.0
80192;SHT31;69513;51.990;5.704;2023-07-13T06:24:22;18.9;68.6
80192;SHT31;69513;51.990;5.704;2023-07-13T06:26:52;19.0;68.8
80192;SHT31;69513;51.990;5.704;2023-07-13T06:29:22;19.0;68.9
80192;SHT31;69513;51.990;5.704;2023-07-13T06:31:52;19.0;68.8
80192;SHT31;69513;51.990;5.704;2023-07-13T06:34:23;19.0;69.2
80192;SHT31;69513;51.990;5.704;2023-07-13T06:36:53;19.1;69.2
80192;SHT31;69513;51.990;5.704;2023-07-13T06:39:24;19.1;69.2
80192;SHT31;69513;51.990;5.704;2023-07-13T06:41:54;19.1;68.9
80192;SHT31;69513;51.990;5.704;2023-07-13T06:44:25;19.1;69.6
80192;SHT31;69513;51.990;5.704;2023-07-13T06:46:56;19.2;69.5
80192;SHT31;69513;51.990;5.704;2023-07-13T06:49:26;19.2;69.9
80192;SHT31;69513;51.990;5.704;2023-07-13T06:51:58;19.3;69.7
80192;SHT31;69513;51.990;5.704;2023-07-13T06:54:28;19.3;69.5
80192;SHT31;69513;51.990;5.704;2023-07-13T06:56:58;19.4;69.6
80192;SHT31;69513;51.990;5.704;2023-07-13T06:59:28;19.4;69.2
80192;SHT31;69513;51.990;5.704;2023-07-13T07:02:01;19.4;69.1
80192;SHT31;69513;51.990;5.704;2023-07-13T07:04:30;19.5;69.1
80192;SHT31;69513;51.990;5.704;2023-07-13T07:07:01;19.5;68.9
80192;SHT31;69513;51.990;5.704;2023-07-13T07:09:30;19.5;68.2
80192;SHT31;69513;51.990;5.704;2023-07-13T07:12:00;19.5;68.6
80192;SHT31;69513;51.990;5.704;2023-07-13T07:14:30;19.6;68.6
80192;SHT31;69513;51.990;5.704;2023-07-13T07:17:02;19.6;68.2
80192;SHT31;69513;51.990;5.704;2023-07-13T07:19:32;19.6;68.1
80192;SHT31;69513;51.990;5.704;2023-07-13T07:22:03;19.6;68.6
80192;SHT31;69513;51.990;5.704;2023-07-13T07:24:35;19.6;68.6
80192;SHT31;69513;51.990;5.704;2023-07-13T07:27:06;19.7;68.6
80192;SHT31;69513;51.990;5.704;2023-07-13T07:29:38;19.7;68.3
80192;SHT31;69513;51.990;5.704;2023-07-13T07:32:09;19.7;67.8
80192;SHT31;69513;51.990;5.704;2023-07-13T07:34:40;19.8;68.4
80192;SHT31;69513;51.990;5.704;2023-07-13T07:37:13;19.8;68.0
80192;SHT31;69513;51.990;5.704;2023-07-13T07:39:44;19.8;67.0
80192;SHT31;69513;51.990;5.704;2023-07-13T07:42:15;19.8;67.5
80192;SHT31;69513;51.990;5.704;2023-07-13T07:44:47;19.9;67.9
80192;SHT31;69513;51.990;5.704;2023-07-13T07:47:16;19.9;67.5
80192;SHT31;69513;51.990;5.704;2023-07-13T07:49:46;19.9;67.8
80192;SHT31;69513;51.990;5.704;2023-07-13T07:52:16;20.0;68.1
80192;SHT31;69513;51.990;5.704;2023-07-13T07:54:45;20.0;67.8
80192;SHT31;69513;51.990;5.704;2023-07-13T07:57:15;20.0;67.7
80192;SHT31;69513;51.990;5.704;2023-07-13T07:59:46;20.1;67.2
80192;SHT31;69513;51.990;5.704;2023-07-13T08:02:17;20.1;67.6
80192;SHT31;69513;51.990;5.704;2023-07-13T08:04:47;20.2;67.6
80192;SHT31;69513;51.990;5.704;2023-07-13T08:07:18;20.3;66.9
80192;SHT31;69513;51.990;5.704;2023-07-13T08:09:52;20.3;66.6
80192;SHT31;69513;51.990;5.704;2023-07-13T08:12:23;20.4;66.8
80192;SHT31;69513;51.990;5.704;2023-07-13T08:14:53;20.5;66.5
80192;SHT31;69513;51.990;5.704;2023-07-13T08:17:25;20.5;66.2
80192;SHT31;69513;51.990;5.704;2023-07-13T08:19:55;20.6;65.8
80192;SHT31;69513;51.990;5.704;2023-07-13T08:22:27;20.7;66.0
80192;SHT31;69513;51.990;5.704;2023-07-13T08:24:57;20.7;65.8
80192;SHT31;69513;51.990;5.704;2023-07-13T08:27:28;20.8;65.2
80192;SHT31;69513;51.990;5.704;2023-07-13T08:29:58;20.8;65.0
80192;SHT31;69513;51.990;5.704;2023-07-13T08:32:28;20.8;63.6
80192;SHT31;69513;51.990;5.704;2023-07-13T08:35:02;20.9;64.2
80192;SHT31;69513;51.990;5.704;2023-07-13T08:37:35;20.9;63.6
80192;SHT31;69513;51.990;5.704;2023-07-13T08:40:09;20.9;63.8
80192;SHT31;69513;51.990;5.704;2023-07-13T08:42:45;20.9;64.0
80192;SHT31;69513;51.990;5.704;2023-07-13T08:45:22;20.9;63.7
80192;SHT31;69513;51.990;5.704;2023-07-13T08:48:02;20.9;63.0
80192;SHT31;69513;51.990;5.704;2023-07-13T08:50:46;20.9;63.5
80192;SHT31;69513;51.990;5.704;2023-07-13T08:53:14;21.0;62.0
80192;SHT31;69513;51.990;5.704;2023-07-13T08:55:45;21.0;61.8
80192;SHT31;69513;51.990;5.704;2023-07-13T08:58:19;21.0;61.7
80192;SHT31;69513;51.990;5.704;2023-07-13T09:00:59;21.1;61.0
80192;SHT31;69513;51.990;5.704;2023-07-13T09:03:42;21.1;61.1
80192;SHT31;69513;51.990;5.704;2023-07-13T09:06:17;21.2;61.3
80192;SHT31;69513;51.990;5.704;2023-07-13T09:08:59;21.3;61.4
80192;SHT31;69513;51.990;5.704;2023-07-13T09:11:46;21.3;60.0
80192;SHT31;69513;51.990;5.704;2023-07-13T09:14:42;21.4;59.8
80192;SHT31;69513;51.990;5.704;2023-07-13T09:17:19;21.4;60.0
80192;SHT31;69513;51.990;5.704;2023-07-13T09:19:59;21.4;57.9
80192;SHT31;69513;51.990;5.704;2023-07-13T09:22:35;21.4;59.0
80192;SHT31;69513;51.990;5.704;2023-07-13T09:25:21;21.4;59.4
80192;SHT31;69513;51.990;5.704;2023-07-13T09:27:58;21.4;59.0
80192;SHT31;69513;51.990;5.704;2023-07-13T09:30:37;21.4;60.9
80192;SHT31;69513;51.990;5.704;2023-07-13T09:33:10;21.4;61.6
80192;SHT31;69513;51.990;5.704;2023-07-13T09:35:42;21.4;60.9
80192;SHT31;69513;51.990;5.704;2023-07-13T09:38:17;21.4;63.3
80192;SHT31;69513;51.990;5.704;2023-07-13T09:41:00;21.4;62.0
80192;SHT31;69513;51.990;5.704;2023-07-13T09:43:38;21.4;62.9
80192;SHT31;69513;51.990;5.704;2023-07-13T09:46:23;21.4;63.4
80192;SHT31;69513;51.990;5.704;2023-07-13T09:48:54;21.4;63.1
80192;SHT31;69513;51.990;5.704;2023-07-13T09:51:25;21.3;62.7
80192;SHT31;69513;51.990;5.704;2023-07-13T09:53:56;21.3;63.5
80192;SHT31;69513;51.990;5.704;2023-07-13T09:56:30;21.3;63.2
80192;SHT31;69513;51.990;5.704;2023-07-13T09:59:02;21.4;62.2
80192;SHT31;69513;51.990;5.704;2023-07-13T10:01:37;21.4;62.8
80192;SHT31;69513;51.990;5.704;2023-07-13T10:04:14;21.4;63.2
80192;SHT31;69513;51.990;5.704;2023-07-13T10:06:48;21.5;61.5
80192;SHT31;69513;51.990;5.704;2023-07-13T10:09:19;21.5;60.2
80192;SHT31;69513;51.990;5.704;2023-07-13T10:11:50;21.6;60.6
80192;SHT31;69513;51.990;5.704;2023-07-13T10:14:25;21.6;60.8
80192;SHT31;69513;51.990;5.704;2023-07-13T10:17:00;21.7;58.9
80192;SHT31;69513;51.990;5.704;2023-07-13T10:19:35;21.8;59.3
80192;SHT31;69513;51.990;5.704;2023-07-13T10:22:16;21.8;60.1
80192;SHT31;69513;51.990;5.704;2023-07-13T10:24:49;21.9;61.6
80192;SHT31;69513;51.990;5.704;2023-07-13T10:27:31;21.9;60.9
80192;SHT31;69513;51.990;5.704;2023-07-13T10:30:12;21.9;60.5
80192;SHT31;69513;51.990;5.704;2023-07-13T10:32:44;21.9;60.6
80192;SHT31;69513;51.990;5.704;2023-07-13T10:35:19;21.9;60.9
80192;SHT31;69513;51.990;5.704;2023-07-13T10:37:55;22.0;61.1
80192;SHT31;69513;51.990;5.704;2023-07-13T10:40:37;22.0;60.6
80192;SHT31;69513;51.990;5.704;2023-07-13T10:43:18;22.0;60.7
80192;SHT31;69513;51.990;5.704;2023-07-13T10:45:50;22.1;60.3
80192;SHT31;69513;51.990;5.704;2023-07-13T10:48:23;22.1;59.6
80192;SHT31;69513;51.990;5.704;2023-07-13T10:50:55;22.2;59.1
80192;SHT31;69513;51.990;5.704;2023-07-13T10:53:32;22.2;57.5
80192;SHT31;69513;51.990;5.704;2023-07-13T10:56:06;22.2;58.3
80192;SHT31;69513;51.990;5.704;2023-07-13T10:58:41;22.2;55.8
80192;SHT31;69513;51.990;5.704;2023-07-13T11:01:15;22.3;54.6
80192;SHT31;69513;51.990;5.704;2023-07-13T11:04:00;22.3;57.2
80192;SHT31;69513;51.990;5.704;2023-07-13T11:06:37;22.4;57.3
80192;SHT31;69513;51.990;5.704;2023-07-13T11:09:37;22.4;59.2
80192;SHT31;69513;51.990;5.704;2023-07-13T11:15:11;22.3;62.5
80192;SHT31;69513;51.990;5.704;2023-07-13T11:17:53;22.3;59.8
80192;SHT31;69513;51.990;5.704;2023-07-13T11:20:40;22.2;61.4
80192;SHT31;69513;51.990;5.704;2023-07-13T11:23:32;22.2;59.6
80192;SHT31;69513;51.990;5.704;2023-07-13T11:26:03;22.3;61.7
80192;SHT31;69513;51.990;5.704;2023-07-13T11:28:34;22.3;62.6
80192;SHT31;69513;51.990;5.704;2023-07-13T11:31:14;22.4;58.4
80192;SHT31;69513;51.990;5.704;2023-07-13T11:33:53;22.5;60.2
80192;SHT31;69513;51.990;5.704;2023-07-13T11:36:35;22.6;60.7
80192;SHT31;69513;51.990;5.704;2023-07-13T11:39:19;22.8;60.3
80192;SHT31;69513;51.990;5.704;2023-07-13T11:41:55;22.9;59.1
80192;SHT31;69513;51.990;5.704;2023-07-13T11:44:28;23.1;56.3
80192;SHT31;69513;51.990;5.704;2023-07-13T11:47:00;23.2;55.0
80192;SHT31;69513;51.990;5.704;2023-07-13T11:49:43;23.3;55.0
80192;SHT31;69513;51.990;5.704;2023-07-13T11:52:17;23.3;55.3
80192;SHT31;69513;51.990;5.704;2023-07-13T11:54:53;23.3;56.1
80192;SHT31;69513;51.990;5.704;2023-07-13T11:57:30;23.3;55.9
80192;SHT31;69513;51.990;5.704;2023-07-13T12:00:05;23.3;57.7
80192;SHT31;69513;51.990;5.704;2023-07-13T12:02:42;23.4;56.4
80192;SHT31;69513;51.990;5.704;2023-07-13T12:05:16;23.4;52.5
80192;SHT31;69513;51.990;5.704;2023-07-13T12:07:49;23.5;52.8
80192;SHT31;69513;51.990;5.704;2023-07-13T12:10:25;23.6;52.7
80192;SHT31;69513;51.990;5.704;2023-07-13T12:13:00;23.7;56.1
80192;SHT31;69513;51.990;5.704;2023-07-13T12:15:39;23.9;55.1
80192;SHT31;69513;51.990;5.704;2023-07-13T12:18:21;24.1;51.9
80192;SHT31;69513;51.990;5.704;2023-07-13T12:20:57;24.2;51.7
80192;SHT31;69513;51.990;5.704;2023-07-13T12:23:32;24.3;51.3
80192;SHT31;69513;51.990;5.704;2023-07-13T12:26:06;24.3;51.2
80192;SHT31;69513;51.990;5.704;2023-07-13T12:28:47;24.3;52.4
80192;SHT31;69513;51.990;5.704;2023-07-13T12:31:54;24.4;51.7
80192;SHT31;69513;51.990;5.704;2023-07-13T12:34:27;24.5;52.2
80192;SHT31;69513;51.990;5.704;2023-07-13T12:37:00;24.6;50.6
80192;SHT31;69513;51.990;5.704;2023-07-13T12:39:37;24.7;50.0
80192;SHT31;69513;51.990;5.704;2023-07-13T12:42:22;24.8;47.4
80192;SHT31;69513;51.990;5.704;2023-07-13T12:44:59;24.9;48.8
80192;SHT31;69513;51.990;5.704;2023-07-13T12:47:41;25.0;48.8
80192;SHT31;69513;51.990;5.704;2023-07-13T12:50:19;25.0;47.3
80192;SHT31;69513;51.990;5.704;2023-07-13T12:52:54;25.1;46.2
80192;SHT31;69513;51.990;5.704;2023-07-13T12:55:27;25.2;45.2
80192;SHT31;69513;51.990;5.704;2023-07-13T12:58:04;25.3;48.0
80192;SHT31;69513;51.990;5.704;2023-07-13T13:00:36;25.4;45.4
80192;SHT31;69513;51.990;5.704;2023-07-13T13:03:20;25.5;47.0
80192;SHT31;69513;51.990;5.704;2023-07-13T13:06:02;25.5;46.0
80192;SHT31;69513;51.990;5.704;2023-07-13T13:08:35;25.6;45.0
80192;SHT31;69513;51.990;5.704;2023-07-13T13:11:09;25.7;44.3
80192;SHT31;69513;51.990;5.704;2023-07-13T13:13:39;25.8;46.4
80192;SHT31;69513;51.990;5.704;2023-07-13T13:16:17;25.8;43.7
80192;SHT31;69513;51.990;5.704;2023-07-13T13:18:53;25.9;41.8
80192;SHT31;69513;51.990;5.704;2023-07-13T13:21:26;25.9;44.7
80192;SHT31;69513;51.990;5.704;2023-07-13T13:23:55;25.9;43.7
80192;SHT31;69513;51.990;5.704;2023-07-13T13:26:26;26.0;45.0
80192;SHT31;69513;51.990;5.704;2023-07-13T13:28:59;26.1;46.3
80192;SHT31;69513;51.990;5.704;2023-07-13T13:31:30;26.2;42.7
80192;SHT31;69513;51.990;5.704;2023-07-13T13:33:59;26.3;43.0
80192;SHT31;69513;51.990;5.704;2023-07-13T13:36:30;26.5;42.2
80192;SHT31;69513;51.990;5.704;2023-07-13T13:39:00;26.6;41.0
80192;SHT31;69513;51.990;5.704;2023-07-13T13:41:33;26.7;42.7
80192;SHT31;69513;51.990;5.704;2023-07-13T13:44:09;26.8;42.7
80192;SHT31;69513;51.990;5.704;2023-07-13T13:46:38;26.9;42.7
80192;SHT31;69513;51.990;5.704;2023-07-13T13:49:14;27.1;43.7
80192;SHT31;69513;51.990;5.704;2023-07-13T13:51:48;27.3;42.8
80192;SHT31;69513;51.990;5.704;2023-07-13T13:54:20;27.5;41.0
80192;SHT31;69513;51.990;5.704;2023-07-13T13:56:53;27.6;39.5
80192;SHT31;69513;51.990;5.704;2023-07-13T13:59:25;27.6;39.4
80192;SHT31;69513;51.990;5.704;2023-07-13T14:01:56;27.6;39.0
80192;SHT31;69513;51.990;5.704;2023-07-13T14:04:27;27.6;41.0
80192;SHT31;69513;51.990;5.704;2023-07-13T14:06:58;27.6;40.8
80192;SHT31;69513;51.990;5.704;2023-07-13T14:09:30;27.6;39.7
80192;SHT31;69513;51.990;5.704;2023-07-13T14:12:08;27.5;39.5
80192;SHT31;69513;51.990;5.704;2023-07-13T14:14:44;27.4;39.9
80192;SHT31;69513;51.990;5.704;2023-07-13T14:17:21;27.4;40.5
80192;SHT31;69513;51.990;5.704;2023-07-13T14:19:53;27.5;40.1
80192;SHT31;69513;51.990;5.704;2023-07-13T14:22:27;27.5;41.0
80192;SHT31;69513;51.990;5.704;2023-07-13T14:24:56;27.6;41.5
80192;SHT31;69513;51.990;5.704;2023-07-13T14:27:30;27.7;40.1
80192;SHT31;69513;51.990;5.704;2023-07-13T14:30:00;27.8;39.3
80192;SHT31;69513;51.990;5.704;2023-07-13T14:32:31;27.8;38.8
80192;SHT31;69513;51.990;5.704;2023-07-13T14:35:00;27.8;40.8
80192;SHT31;69513;51.990;5.704;2023-07-13T14:37:36;27.7;40.8
80192;SHT31;69513;51.990;5.704;2023-07-13T14:40:15;27.7;40.1
80192;SHT31;69513;51.990;5.704;2023-07-13T14:42:48;27.6;38.2
80192;SHT31;69513;51.990;5.704;2023-07-13T14:45:20;27.5;38.5
80192;SHT31;69513;51.990;5.704;2023-07-13T14:47:51;27.3;39.2
80192;SHT31;69513;51.990;5.704;2023-07-13T14:50:30;27.1;40.5
80192;SHT31;69513;51.990;5.704;2023-07-13T14:53:08;26.9;39.8
80192;SHT31;69513;51.990;5.704;2023-07-13T14:55:39;26.7;41.0
80192;SHT31;69513;51.990;5.704;2023-07-13T14:58:11;26.6;40.9
80192;SHT31;69513;51.990;5.704;2023-07-13T15:00:44;26.5;40.0
80192;SHT31;69513;51.990;5.704;2023-07-13T15:03:23;26.4;41.1
80192;SHT31;69513;51.990;5.704;2023-07-13T15:05:58;26.3;40.8
80192;SHT31;69513;51.990;5.704;2023-07-13T15:08:30;26.2;41.5
80192;SHT31;69513;51.990;5.704;2023-07-13T15:11:00;26.2;41.6
80192;SHT31;69513;51.990;5.704;2023-07-13T15:13:32;26.1;42.9
80192;SHT31;69513;51.990;5.704;2023-07-13T15:16:21;26.1;40.7
80192;SHT31;69513;51.990;5.704;2023-07-13T15:18:55;26.1;41.3
80192;SHT31;69513;51.990;5.704;2023-07-13T15:21:26;26.1;40.8
80192;SHT31;69513;51.990;5.704;2023-07-13T15:24:01;26.0;40.1
80192;SHT31;69513;51.990;5.704;2023-07-13T15:26:34;26.0;41.3
80192;SHT31;69513;51.990;5.704;2023-07-13T15:29:07;25.9;41.7
80192;SHT31;69513;51.990;5.704;2023-07-13T15:31:38;25.8;43.2
80192;SHT31;69513;51.990;5.704;2023-07-13T15:34:13;25.8;42.3
80192;SHT31;69513;51.990;5.704;2023-07-13T15:36:45;25.8;42.9
80192;SHT31;69513;51.990;5.704;2023-07-13T15:39:17;25.7;42.4
80192;SHT31;69513;51.990;5.704;2023-07-13T15:41:47;25.7;42.3
80192;SHT31;69513;51.990;5.704;2023-07-13T15:44:25;25.6;43.5
80192;SHT31;69513;51.990;5.704;2023-07-13T15:46:59;25.6;44.8
80192;SHT31;69513;51.990;5.704;2023-07-13T15:49:33;25.6;44.3
80192;SHT31;69513;51.990;5.704;2023-07-13T15:52:12;25.6;45.2
80192;SHT31;69513;51.990;5.704;2023-07-13T15:54:47;25.6;41.9
80192;SHT31;69513;51.990;5.704;2023-07-13T15:57:19;25.6;43.8
80192;SHT31;69513;51.990;5.704;2023-07-13T15:59:49;25.5;44.7
80192;SHT31;69513;51.990;5.704;2023-07-13T16:02:21;25.5;44.5
80192;SHT31;69513;51.990;5.704;2023-07-13T16:04:53;25.5;45.0
80192;SHT31;69513;51.990;5.704;2023-07-13T16:07:24;25.5;46.4
80192;SHT31;69513;51.990;5.704;2023-07-13T16:09:58;25.6;46.3
80192;SHT31;69513;51.990;5.704;2023-07-13T16:12:27;25.6;47.6
80192;SHT31;69513;51.990;5.704;2023-07-13T16:14:57;25.6;46.3
80192;SHT31;69513;51.990;5.704;2023-07-13T16:17:27;25.7;44.9
80192;SHT31;69513;51.990;5.704;2023-07-13T16:19:58;25.7;44.9
80192;SHT31;69513;51.990;5.704;2023-07-13T16:22:27;25.7;43.8
80192;SHT31;69513;51.990;5.704;2023-07-13T16:24:58;25.7;42.5
80192;SHT31;69513;51.990;5.704;2023-07-13T16:27:28;25.7;44.3
80192;SHT31;69513;51.990;5.704;2023-07-13T16:30:17;25.8;43.9
80192;SHT31;69513;51.990;5.704;2023-07-13T16:32:51;25.8;42.1
80192;SHT31;69513;51.990;5.704;2023-07-13T16:35:24;25.8;41.5
80192;SHT31;69513;51.990;5.704;2023-07-13T16:37:55;25.7;41.5
80192;SHT31;69513;51.990;5.704;2023-07-13T16:40:28;25.7;40.7
80192;SHT31;69513;51.990;5.704;2023-07-13T16:42:59;25.7;41.8